This is the latest recevied weather packets stored in our database for station/object W4RJG. If no packets are shown the sender has not sent any weather packets the latest 10 day(s).
| Time | Temp. | Humidity | Pressure | Rain* | Wind** | Luminosity | Snow |
|---|---|---|---|---|---|---|---|
| 1777684204 | 14.44° C | 71% | 1001.4 hPa | 0 mm | - | 0 W/m² | - |
| 1777682405 | 15° C | 68% | 1001 hPa | 0 mm | - | 0 W/m² | - |
| 1777678805 | 17.78° C | 57% | 1000.3 hPa | 0 mm | - | 0 W/m² | - |
| 1777671004 | 21.11° C | 42% | 1001.4 hPa | 0 mm | - | 0 W/m² | - |
| 1777670404 | 21.11° C | 42% | 1001.4 hPa | 0 mm | - | 0 W/m² | - |
| 1777669204 | 21.11° C | 42% | 1001.4 hPa | 0 mm | - | 0 W/m² | - |
| 1777663804 | 21.67° C | 38% | 1002.4 hPa | 0 mm | - | 0 W/m² | - |
| 1777662604 | 20.56° C | 40% | 1002.7 hPa | 0 mm | - | 0 W/m² | - |
| 1777662006 | 21.11° C | 40% | 1002.7 hPa | 0 mm | - | 0 W/m² | - |
| 1777656004 | 20.56° C | 39% | 1004.1 hPa | 0 mm | - | 0 W/m² | - |
| 1777652404 | 20.56° C | 40% | 1005.1 hPa | 0 mm | - | 0 W/m² | - |
| 1777651205 | 18.89° C | 43% | 1005.1 hPa | 0 mm | - | 0 W/m² | - |
| 1777650005 | 20° C | 40% | 1005.4 hPa | 0 mm | - | 0 W/m² | - |
| 1777648805 | 18.33° C | 43% | 1005.8 hPa | 0 mm | - | 0 W/m² | - |
| 1777645805 | 15.56° C | 58% | 1005.8 hPa | 0 mm | - | 0 W/m² | - |
| 1777644605 | 13.89° C | 64% | 1005.8 hPa | 0 mm | - | 0 W/m² | - |
| 1777639205 | 8.89° C | 91% | 1006.1 hPa | 0 mm | - | 0 W/m² | - |
| 1777634404 | 5.56° C | 94% | 1005.7 hPa | 0 mm | - | 0 W/m² | - |
| 1777633204 | 5° C | 94% | 1005.4 hPa | 0 mm | - | 0 W/m² | - |
| 1777631405 | 5° C | 94% | 1005.1 hPa | 0 mm | - | 0 W/m² | - |
| 1777628404 | 5.56° C | 93% | 1005.1 hPa | 0 mm | - | 0 W/m² | - |
| 1777626004 | 5° C | 92% | 1005.1 hPa | 0 mm | - | 0 W/m² | - |
| 1777621205 | 5.56° C | 90% | 1004.7 hPa | 0 mm | - | 0 W/m² | - |
| 1777618805 | 6.67° C | 89% | 1004.7 hPa | 0 mm | - | 0 W/m² | - |
| 1777608004 | 10° C | 75% | 1003 hPa | 0 mm | - | 0 W/m² | - |
* Rain latest hour (hover to see other rain measurements)
** Current wind speed in m/s (hover to see current wind gust speed)